Terminal Aerodrome Forecast
Issued by NWS

Home | Current Version | Previous Version | Text Only | Print | Product List | Glossary On
Versions: 1 2 3 4 5 6 7 8 9 10 11 12 13
833
FTUS43 KILX 231738
TAFCMI
TAF
KCMI 231738Z 2318/2418 09014KT P6SM VCSH BKN025 OVC050
     FM232100 08015KT P6SM -RA OVC015
     FM240200 05010KT 5SM -RA BR BKN006 OVC012
     FM240600 04009KT P6SM OVC006
     FM241700 01010KT P6SM SCT006 OVC015=

USA.gov is the U.S. government's official web portal to all federal, state and local government web resources and services.